Terminal Aerodrome Forecast
Issued by NWS

Home | Current Version | Previous Version | Text Only | Print | Product List | Glossary On
Versions: 1 2 3 4 5 6 7 8 9 10 11 12 13 14 15 16 17 18
000
FTUS44 KLIX 260520
TAFMCB
TAF
KMCB 260520Z 2606/2706 00000KT P6SM SKC
     FM260900 00000KT P6SM BKN020 BKN200
     FM261400 00000KT P6SM VCTS BKN020CB BKN200
      TEMPO 2616/2620 4SM TSRA BKN025CB
     FM262000 00000KT P6SM VCTS BKN030CB BKN200
     FM270300 15004KT P6SM BKN040 BKN250=

USA.gov is the U.S. government's official web portal to all federal, state and local government web resources and services.